AirNav   ATP
 
 1029 users online  

6T2 Seagate Helistop
Toledo, Ohio, USA

GOING TO TOLEDO?


FAA INFORMATION EFFECTIVE 21 JUNE 2018

Location

FAA Identifier: 6T2
Lat/Long: 41-39-15.1770N / 083-31-52.7600W
41-39.252950N / 083-31.879333W
41.6542158 / -83.5313222
(estimated)
Elevation: 650 ft. / 198 m (estimated)
Variation: 05W (1985)
Time zone: UTC -4 (UTC -5 during Standard Time)
Zip code: 43604

Heliport Operations

Heliport use: Open to the public
Activation date: 04/1982
Control tower: no
ARTCC: CLEVELAND CENTER
FSS: CLEVELAND FLIGHT SERVICE STATION
NOTAMs facility: CLE (NOTAM-D service available)
Attendance: UNATNDD
Wind indicator: lighted
Segmented circle: no
Lights: ACTVT ORANGE PERIMETER LGTS - CTAF.

Heliport Communications

CTAF/UNICOM: 123.05
WX ASOS at TDZ (6 nm S): 121.575 (419-838-5034)
WX AWOS-3 at DUH (7 nm NW): 119.175 (734-856-1563)
WX ASOS at TOL (13 nm W): PHONE 419-865-6924
WX AWOS-3 at 1G0 (16 nm S): 120.725 (419-354-1415)
WX AWOS-3 at TTF (18 nm N): 119.075 (734-384-0259)

Nearby radio navigation aids

VOR radial/distance  VOR name  Freq  Var
VWVr024/13.1WATERVILLE VOR/DME113.1002W
CRLr191/23.9CARLETON VOR/DME115.7003W
DXOr198/34.3DETROIT VOR/DME113.4006W

 
NDB name  Hdg/Dist  Freq  Var  ID
ADRIAN124/27.727806WADG .- -.. --.
TECUMSEH151/27.823906WTCU - -.-. ..-
PORT CLINTON292/30.842307WPCW .--. -.-. .--
GROSSE ILE219/31.741907WRYS .-. -.-- ...
TIFFIN342/36.526905WTII - .. ..

Heliport Services

Runway Information

Helipad H1

Dimensions: 50 x 50 ft. / 15 x 15 m
Surface: concrete, in good condition
Runway edge lights: PERIMETER LGTS.
Runway edge markings: NOT MARKED WITH 'H'.
Latitude: 41-39.252950N
Longitude: 083-31.879333W
Elevation: 650.0 ft.
Traffic pattern: leftleft
Markings: NSTD, in fair condition
Visual slope indicator: non-standard VASI system
NSTD 1-BOX (2 VASIS) OTS INDEF.

Heliport Ownership and Management from official FAA records

Ownership: Publicly-owned
Owner: TOLEDO-LUCAS CO. PORT AUTH
11013 AIRPORT HWY, BOX 11
SWANTON, OH 43558
Phone (419) 865-2351
Manager: STEPHEN ARNOLD
11013 AIRPORT HWY, BOX 11
SWANTON, OH 43558
Phone (419) 865-2351
EXT 210

Heliport Operational Statistics

Aircraft operations: 68/year *
41% transient general aviation
29% local general aviation
29% military
* for 12-month period ending 11 August 2016

Additional Remarks

APP/DEP CORRIDOR 040-110 DEG MAG, PPR.
DOOR TO PAD IS LOCKED. CALL MGR FOR CODE BEFORE LDG 419-865-2351.
A33 ROOFTOP.

Instrument Procedures

There are no published instrument procedures at 6T2.

Some nearby airports with instrument procedures:

KTDZ - Toledo Executive Airport (6 nm S)
KDUH - Toledo Suburban Airport (7 nm NW)
KTOL - Toledo Express Airport (13 nm W)
1G0 - Wood County Airport (16 nm S)
KTTF - Custer Airport (18 nm N)
 
Loc | Ops | Rwys | IFR | FBO | Links
Com | Nav | Svcs | Stats | Notes

City of Findlay
 
Area around 6T2 (Seagate Helistop)
 
Road maps at: MapQuest Bing Google
 
Aerial photo
No photo
 
Sectional chart

 
Airport distance calculator
Flying to Seagate Helistop? Find the distance to fly.

From to 6T2

Sunrise and sunset
Times for 15-Jul-2018
 Local
(UTC-4)
 Zulu
(UTC)
Morning civil twilight05:4109:41
Sunrise06:1410:14
Sunset21:0601:06
Evening civil twilight21:3901:39

Current date and time
Zulu (UTC)  15-Jul-2018 23:45:45
Local (UTC-4)  15-Jul-2018 19:45:45
 
METAR
KTDZ 
6nm S 
152253Z AUTO 16014KT 10SM BKN050 31/22 A2995 RMK AO2 SLP134 T03110217 $
KDUH 
7nm NW 
152342Z AUTO 00000KT 10SM CLR 31/21 A2993 RMK AO2
KTOL 
13nm W 
152252Z 22007KT 10SM CLR 32/21 A2993 RMK AO2 SLP129 T03220211
KTTF 
18nm N 
152335Z AUTO 15007KT 10SM CLR 30/22 A2992 RMK AO2 T02950216
TAF
KTOL 
13nm W 
151731Z 1518/1618 23005KT P6SM SCT040 FM161000 VRB03KT 5SM BR SCT080 FM161300 24007KT P6SM SCT035
NOTAMs
Click for the latest NOTAMs
NOTAMs are issued by the DoD/FAA and will open in a separate window not controlled by AirNav.

 

 
 

Would you like to see your business listed on this page?

 If your business provides an interesting product or service to pilots, flight crews, aircraft, or users of the Seagate Helistop, you should consider listing it here.  To start the listing process, click on the button below
 
Add a business
 

Other Pages about Seagate Helistop

Update a link
 
Copyright © AirNav, LLC. All rights reserved. Privacy Policy  Contact